sensor_id;sensor_type;location;lat;lon;timestamp;pressure;altitude;pressure_sealevel;temperature;humidity
21555;BME280;10938;44.794;-0.676;2022-10-16T00:00:21;100734.56;;;28.44;39.41
21555;BME280;10938;44.794;-0.676;2022-10-16T00:02:46;100728.41;;;29.00;37.70
21555;BME280;10938;44.794;-0.676;2022-10-16T00:05:12;100734.25;;;29.07;36.62
21555;BME280;10938;44.794;-0.676;2022-10-16T00:07:37;100738.47;;;28.09;38.32
21555;BME280;10938;44.794;-0.676;2022-10-16T00:10:03;100744.34;;;27.54;39.62
21555;BME280;10938;44.794;-0.676;2022-10-16T00:12:28;100747.06;;;27.22;40.35
21555;BME280;10938;44.794;-0.676;2022-10-16T00:14:53;100748.28;;;26.99;40.78
21555;BME280;10938;44.794;-0.676;2022-10-16T00:17:19;100750.13;;;26.98;41.28
21555;BME280;10938;44.794;-0.676;2022-10-16T00:19:44;100750.41;;;27.09;40.87
21555;BME280;10938;44.794;-0.676;2022-10-16T00:22:10;100747.47;;;27.14;40.41
21555;BME280;10938;44.794;-0.676;2022-10-16T00:24:36;100738.50;;;27.15;40.48
21555;BME280;10938;44.794;-0.676;2022-10-16T00:27:01;100747.47;;;27.14;40.29
21555;BME280;10938;44.794;-0.676;2022-10-16T00:29:27;100739.25;;;27.01;40.65
21555;BME280;10938;44.794;-0.676;2022-10-16T00:31:52;100737.59;;;26.15;43.53
21555;BME280;10938;44.794;-0.676;2022-10-16T00:34:18;100734.84;;;26.50;42.49
21555;BME280;10938;44.794;-0.676;2022-10-16T00:36:43;100736.59;;;26.51;42.31
21555;BME280;10938;44.794;-0.676;2022-10-16T00:39:08;100726.19;;;26.45;42.65
21555;BME280;10938;44.794;-0.676;2022-10-16T00:41:34;100715.84;;;26.72;42.13
21555;BME280;10938;44.794;-0.676;2022-10-16T00:44:03;100723.03;;;26.72;41.99
21555;BME280;10938;44.794;-0.676;2022-10-16T00:46:40;100713.59;;;26.82;42.13
21555;BME280;10938;44.794;-0.676;2022-10-16T00:49:14;100717.97;;;26.83;42.32
21555;BME280;10938;44.794;-0.676;2022-10-16T00:51:44;100713.50;;;26.66;42.69
21555;BME280;10938;44.794;-0.676;2022-10-16T00:54:13;100712.53;;;26.84;42.60
21555;BME280;10938;44.794;-0.676;2022-10-16T00:56:40;100705.06;;;26.74;42.94
21555;BME280;10938;44.794;-0.676;2022-10-16T00:59:11;100712.38;;;26.87;42.87
21555;BME280;10938;44.794;-0.676;2022-10-16T01:05:02;100695.66;;;27.31;41.37
21555;BME280;10938;44.794;-0.676;2022-10-16T01:07:54;100689.97;;;27.52;41.45
21555;BME280;10938;44.794;-0.676;2022-10-16T01:10:48;100681.31;;;27.79;41.27
21555;BME280;10938;44.794;-0.676;2022-10-16T01:13:27;100684.69;;;27.96;40.74
21555;BME280;10938;44.794;-0.676;2022-10-16T01:15:59;100683.72;;;28.13;39.92
21555;BME280;10938;44.794;-0.676;2022-10-16T01:18:47;100686.66;;;27.79;40.73
21555;BME280;10938;44.794;-0.676;2022-10-16T01:21:25;100696.16;;;26.90;42.94
21555;BME280;10938;44.794;-0.676;2022-10-16T01:24:23;100693.41;;;28.88;39.04
21555;BME280;10938;44.794;-0.676;2022-10-16T01:29:35;100691.16;;;27.16;42.45
21555;BME280;10938;44.794;-0.676;2022-10-16T01:32:16;100691.16;;;26.84;43.13
21555;BME280;10938;44.794;-0.676;2022-10-16T01:34:56;100694.66;;;26.52;44.10
21555;BME280;10938;44.794;-0.676;2022-10-16T01:37:46;100681.28;;;26.52;44.22
21555;BME280;10938;44.794;-0.676;2022-10-16T01:40:16;100692.78;;;26.70;43.60
21555;BME280;10938;44.794;-0.676;2022-10-16T01:42:47;100694.28;;;27.08;42.42
21555;BME280;10938;44.794;-0.676;2022-10-16T01:45:15;100703.31;;;26.90;42.66
21555;BME280;10938;44.794;-0.676;2022-10-16T01:47:43;100710.53;;;27.05;42.06
21555;BME280;10938;44.794;-0.676;2022-10-16T01:50:09;100702.03;;;27.12;41.89
21555;BME280;10938;44.794;-0.676;2022-10-16T01:52:37;100710.53;;;27.05;42.16
21555;BME280;10938;44.794;-0.676;2022-10-16T01:55:07;100700.13;;;26.99;42.18
21555;BME280;10938;44.794;-0.676;2022-10-16T01:57:36;100692.22;;;26.47;43.66
21555;BME280;10938;44.794;-0.676;2022-10-16T02:00:09;100706.09;;;26.38;44.20
21555;BME280;10938;44.794;-0.676;2022-10-16T02:02:36;100703.06;;;26.61;42.89
21555;BME280;10938;44.794;-0.676;2022-10-16T02:07:43;100703.66;;;26.67;42.83
21555;BME280;10938;44.794;-0.676;2022-10-16T02:10:09;100700.16;;;26.49;43.04
21555;BME280;10938;44.794;-0.676;2022-10-16T02:12:38;100690.56;;;27.10;41.65
21555;BME280;10938;44.794;-0.676;2022-10-16T02:15:06;100686.44;;;27.21;41.13
21555;BME280;10938;44.794;-0.676;2022-10-16T02:17:32;100692.19;;;26.82;41.86
21555;BME280;10938;44.794;-0.676;2022-10-16T02:19:58;100692.88;;;27.01;41.33
21555;BME280;10938;44.794;-0.676;2022-10-16T02:22:45;100691.34;;;27.12;41.27
21555;BME280;10938;44.794;-0.676;2022-10-16T02:27:54;100681.84;;;27.38;40.03
21555;BME280;10938;44.794;-0.676;2022-10-16T02:30:39;100686.84;;;27.13;40.09
21555;BME280;10938;44.794;-0.676;2022-10-16T02:33:09;100685.56;;;25.69;44.31
21555;BME280;10938;44.794;-0.676;2022-10-16T02:35:36;100684.34;;;27.10;41.06
21555;BME280;10938;44.794;-0.676;2022-10-16T02:38:03;100678.72;;;27.30;40.46
21555;BME280;10938;44.794;-0.676;2022-10-16T02:40:29;100677.91;;;27.45;40.06
21555;BME280;10938;44.794;-0.676;2022-10-16T02:42:55;100678.91;;;27.27;40.49
21555;BME280;10938;44.794;-0.676;2022-10-16T02:45:21;100675.19;;;27.14;40.63
21555;BME280;10938;44.794;-0.676;2022-10-16T02:47:50;100689.41;;;26.99;41.08
21555;BME280;10938;44.794;-0.676;2022-10-16T02:50:16;100695.81;;;26.96;40.45
21555;BME280;10938;44.794;-0.676;2022-10-16T02:52:41;100677.88;;;27.14;39.58
21555;BME280;10938;44.794;-0.676;2022-10-16T02:55:07;100679.50;;;27.01;40.31
21555;BME280;10938;44.794;-0.676;2022-10-16T02:57:32;100669.91;;;26.97;40.67
21555;BME280;10938;44.794;-0.676;2022-10-16T02:59:58;100674.19;;;26.18;42.23
21555;BME280;10938;44.794;-0.676;2022-10-16T03:02:23;100682.19;;;27.17;39.47
21555;BME280;10938;44.794;-0.676;2022-10-16T03:04:49;100675.63;;;27.22;39.18
21555;BME280;10938;44.794;-0.676;2022-10-16T03:07:14;100678.41;;;27.21;38.86
21555;BME280;10938;44.794;-0.676;2022-10-16T03:09:40;100676.69;;;27.35;38.76
21555;BME280;10938;44.794;-0.676;2022-10-16T03:12:06;100683.56;;;27.08;39.84
21555;BME280;10938;44.794;-0.676;2022-10-16T03:14:32;100693.75;;;27.01;39.55
21555;BME280;10938;44.794;-0.676;2022-10-16T03:16:57;100683.22;;;26.98;39.52
21555;BME280;10938;44.794;-0.676;2022-10-16T03:19:22;100680.97;;;26.91;39.55
21555;BME280;10938;44.794;-0.676;2022-10-16T03:21:48;100680.38;;;26.69;39.73
21555;BME280;10938;44.794;-0.676;2022-10-16T03:24:13;100690.56;;;26.78;39.52
21555;BME280;10938;44.794;-0.676;2022-10-16T03:26:39;100689.72;;;26.77;39.32
21555;BME280;10938;44.794;-0.676;2022-10-16T03:29:04;100687.28;;;26.73;39.36
21555;BME280;10938;44.794;-0.676;2022-10-16T03:31:30;100687.09;;;26.76;39.09
21555;BME280;10938;44.794;-0.676;2022-10-16T03:33:56;100684.16;;;26.65;39.31
21555;BME280;10938;44.794;-0.676;2022-10-16T03:36:22;100675.69;;;26.56;39.49
21555;BME280;10938;44.794;-0.676;2022-10-16T03:38:47;100672.63;;;26.47;39.96
21555;BME280;10938;44.794;-0.676;2022-10-16T03:41:13;100673.03;;;26.39;40.39
21555;BME280;10938;44.794;-0.676;2022-10-16T03:43:38;100676.59;;;26.23;41.02
21555;BME280;10938;44.794;-0.676;2022-10-16T03:46:04;100673.69;;;26.27;41.03
21555;BME280;10938;44.794;-0.676;2022-10-16T03:48:29;100676.50;;;26.41;40.25
21555;BME280;10938;44.794;-0.676;2022-10-16T03:50:55;100672.66;;;26.30;40.51
21555;BME280;10938;44.794;-0.676;2022-10-16T03:53:22;100670.53;;;26.02;41.65
21555;BME280;10938;44.794;-0.676;2022-10-16T03:55:48;100682.94;;;25.86;41.60
21555;BME280;10938;44.794;-0.676;2022-10-16T03:58:14;100665.75;;;25.91;41.00
21555;BME280;10938;44.794;-0.676;2022-10-16T04:00:43;100665.25;;;26.00;40.94
21555;BME280;10938;44.794;-0.676;2022-10-16T04:03:10;100664.97;;;25.53;42.37
21555;BME280;10938;44.794;-0.676;2022-10-16T04:05:35;100662.56;;;25.66;42.11
21555;BME280;10938;44.794;-0.676;2022-10-16T04:08:01;100661.88;;;25.97;41.55
21555;BME280;10938;44.794;-0.676;2022-10-16T04:10:26;100660.00;;;25.82;42.46
21555;BME280;10938;44.794;-0.676;2022-10-16T04:12:52;100658.25;;;25.64;42.88
21555;BME280;10938;44.794;-0.676;2022-10-16T04:15:21;100659.59;;;25.55;42.74
21555;BME280;10938;44.794;-0.676;2022-10-16T04:17:47;100663.16;;;25.18;43.76
21555;BME280;10938;44.794;-0.676;2022-10-16T04:20:12;100677.13;;;25.78;42.18
21555;BME280;10938;44.794;-0.676;2022-10-16T04:22:38;100667.44;;;26.44;40.43
21555;BME280;10938;44.794;-0.676;2022-10-16T04:25:04;100655.28;;;26.04;40.82
21555;BME280;10938;44.794;-0.676;2022-10-16T04:27:30;100661.72;;;26.00;41.00
21555;BME280;10938;44.794;-0.676;2022-10-16T04:29:57;100662.09;;;25.92;41.72
21555;BME280;10938;44.794;-0.676;2022-10-16T04:32:22;100657.03;;;26.05;41.35
21555;BME280;10938;44.794;-0.676;2022-10-16T04:34:48;100659.59;;;25.89;41.40
21555;BME280;10938;44.794;-0.676;2022-10-16T04:37:13;100658.72;;;25.89;41.26
21555;BME280;10938;44.794;-0.676;2022-10-16T04:39:38;100668.31;;;25.93;41.62
21555;BME280;10938;44.794;-0.676;2022-10-16T04:42:04;100670.94;;;26.11;41.16
21555;BME280;10938;44.794;-0.676;2022-10-16T04:44:29;100665.88;;;26.05;40.99
21555;BME280;10938;44.794;-0.676;2022-10-16T04:46:54;100668.31;;;25.93;41.26
21555;BME280;10938;44.794;-0.676;2022-10-16T04:49:20;100674.91;;;25.86;41.15
21555;BME280;10938;44.794;-0.676;2022-10-16T04:51:45;100668.16;;;25.79;41.41
21555;BME280;10938;44.794;-0.676;2022-10-16T04:54:11;100679.22;;;25.17;42.78
21555;BME280;10938;44.794;-0.676;2022-10-16T04:56:36;100678.28;;;24.99;42.69
21555;BME280;10938;44.794;-0.676;2022-10-16T04:59:09;100683.88;;;24.74;44.06
21555;BME280;10938;44.794;-0.676;2022-10-16T05:01:35;100684.19;;;24.87;43.42
21555;BME280;10938;44.794;-0.676;2022-10-16T05:04:00;100686.56;;;24.93;43.60
21555;BME280;10938;44.794;-0.676;2022-10-16T05:06:26;100687.31;;;24.57;44.47
21555;BME280;10938;44.794;-0.676;2022-10-16T05:08:52;100696.63;;;25.25;42.32
21555;BME280;10938;44.794;-0.676;2022-10-16T05:11:17;100699.06;;;25.11;42.54
21555;BME280;10938;44.794;-0.676;2022-10-16T05:13:43;100697.97;;;25.34;42.41
21555;BME280;10938;44.794;-0.676;2022-10-16T05:16:08;100699.75;;;25.33;42.69
21555;BME280;10938;44.794;-0.676;2022-10-16T05:18:34;100692.81;;;25.48;42.16
21555;BME280;10938;44.794;-0.676;2022-10-16T05:20:59;100692.97;;;25.45;42.38
21555;BME280;10938;44.794;-0.676;2022-10-16T05:23:25;100692.97;;;25.45;41.97
21555;BME280;10938;44.794;-0.676;2022-10-16T05:25:55;100694.84;;;25.62;41.64
21555;BME280;10938;44.794;-0.676;2022-10-16T05:28:26;100696.88;;;25.38;42.46
21555;BME280;10938;44.794;-0.676;2022-10-16T05:30:52;100698.22;;;25.46;42.07
21555;BME280;10938;44.794;-0.676;2022-10-16T05:33:23;100700.06;;;25.27;42.49
21555;BME280;10938;44.794;-0.676;2022-10-16T05:35:49;100703.09;;;25.38;42.37
21555;BME280;10938;44.794;-0.676;2022-10-16T05:38:18;100701.88;;;25.81;40.93
21555;BME280;10938;44.794;-0.676;2022-10-16T05:40:50;100707.59;;;25.74;40.89
21555;BME280;10938;44.794;-0.676;2022-10-16T05:43:17;100703.03;;;25.76;39.98
21555;BME280;10938;44.794;-0.676;2022-10-16T05:45:42;100704.78;;;25.94;39.88
21555;BME280;10938;44.794;-0.676;2022-10-16T05:48:08;100714.63;;;25.57;40.68
21555;BME280;10938;44.794;-0.676;2022-10-16T05:50:33;100709.50;;;25.53;40.49
21555;BME280;10938;44.794;-0.676;2022-10-16T05:52:58;100696.06;;;26.07;40.22
21555;BME280;10938;44.794;-0.676;2022-10-16T05:55:24;100704.31;;;25.31;41.11
21555;BME280;10938;44.794;-0.676;2022-10-16T05:57:49;100715.41;;;25.59;39.98
21555;BME280;10938;44.794;-0.676;2022-10-16T06:00:15;100711.75;;;25.25;40.82
21555;BME280;10938;44.794;-0.676;2022-10-16T06:02:40;100715.59;;;25.74;38.98
21555;BME280;10938;44.794;-0.676;2022-10-16T06:05:06;100708.19;;;25.05;40.34
21555;BME280;10938;44.794;-0.676;2022-10-16T06:07:34;100714.09;;;25.49;40.56
21555;BME280;10938;44.794;-0.676;2022-10-16T06:10:00;100711.44;;;24.93;41.54
21555;BME280;10938;44.794;-0.676;2022-10-16T06:12:26;100712.13;;;24.78;41.52
21555;BME280;10938;44.794;-0.676;2022-10-16T06:14:51;100703.13;;;24.81;41.64
21555;BME280;10938;44.794;-0.676;2022-10-16T06:17:17;100711.13;;;24.81;41.58
21555;BME280;10938;44.794;-0.676;2022-10-16T06:19:42;100716.34;;;24.84;41.91
21555;BME280;10938;44.794;-0.676;2022-10-16T06:22:08;100716.34;;;24.84;41.95
21555;BME280;10938;44.794;-0.676;2022-10-16T06:24:33;100717.66;;;24.94;41.66
21555;BME280;10938;44.794;-0.676;2022-10-16T06:26:59;100725.16;;;25.04;41.41
21555;BME280;10938;44.794;-0.676;2022-10-16T06:29:24;100723.28;;;24.88;41.44
21555;BME280;10938;44.794;-0.676;2022-10-16T06:31:50;100716.34;;;24.84;42.09
21555;BME280;10938;44.794;-0.676;2022-10-16T06:34:15;100718.22;;;25.19;41.36
21555;BME280;10938;44.794;-0.676;2022-10-16T06:36:41;100721.94;;;25.54;40.95
21555;BME280;10938;44.794;-0.676;2022-10-16T06:39:09;100708.13;;;26.83;39.45
21555;BME280;10938;44.794;-0.676;2022-10-16T06:41:34;100712.97;;;27.56;38.10
21555;BME280;10938;44.794;-0.676;2022-10-16T06:44:01;100715.47;;;27.44;38.07
21555;BME280;10938;44.794;-0.676;2022-10-16T06:46:27;100719.72;;;26.99;38.84
21555;BME280;10938;44.794;-0.676;2022-10-16T06:48:54;100724.59;;;27.08;39.68
21555;BME280;10938;44.794;-0.676;2022-10-16T06:51:21;100725.34;;;26.78;39.45
21555;BME280;10938;44.794;-0.676;2022-10-16T06:53:52;100727.03;;;26.63;39.72
21555;BME280;10938;44.794;-0.676;2022-10-16T06:56:23;100717.59;;;26.56;39.64
21555;BME280;10938;44.794;-0.676;2022-10-16T06:58:49;100719.56;;;26.01;41.17
21555;BME280;10938;44.794;-0.676;2022-10-16T07:01:16;100712.84;;;26.28;41.02
21555;BME280;10938;44.794;-0.676;2022-10-16T07:03:44;100714.16;;;26.37;40.80
21555;BME280;10938;44.794;-0.676;2022-10-16T07:06:12;100721.66;;;26.30;41.42
21555;BME280;10938;44.794;-0.676;2022-10-16T07:08:39;100722.25;;;26.52;40.60
21555;BME280;10938;44.794;-0.676;2022-10-16T07:11:08;100736.06;;;25.92;42.65
21555;BME280;10938;44.794;-0.676;2022-10-16T07:13:38;100731.84;;;26.05;42.71
21555;BME280;10938;44.794;-0.676;2022-10-16T07:16:14;100738.44;;;26.84;41.67
21555;BME280;10938;44.794;-0.676;2022-10-16T07:18:41;100737.56;;;26.66;42.04
21555;BME280;10938;44.794;-0.676;2022-10-16T07:21:10;100749.38;;;27.12;41.60
21555;BME280;10938;44.794;-0.676;2022-10-16T07:23:36;100744.22;;;28.91;38.86
21555;BME280;10938;44.794;-0.676;2022-10-16T07:26:02;100748.97;;;31.74;34.84
21555;BME280;10938;44.794;-0.676;2022-10-16T07:28:29;100746.72;;;33.07;32.37
21555;BME280;10938;44.794;-0.676;2022-10-16T07:30:54;100750.28;;;33.08;31.55
21555;BME280;10938;44.794;-0.676;2022-10-16T07:33:20;100743.34;;;33.82;30.45
21555;BME280;10938;44.794;-0.676;2022-10-16T07:35:50;100743.22;;;32.26;32.26
21555;BME280;10938;44.794;-0.676;2022-10-16T07:38:16;100742.28;;;32.84;31.40
21555;BME280;10938;44.794;-0.676;2022-10-16T07:40:42;100753.47;;;33.69;30.57
21555;BME280;10938;44.794;-0.676;2022-10-16T07:43:07;100757.81;;;31.76;32.94
21555;BME280;10938;44.794;-0.676;2022-10-16T07:45:32;100749.00;;;32.33;32.24
21555;BME280;10938;44.794;-0.676;2022-10-16T07:47:58;100753.00;;;31.07;34.56
21555;BME280;10938;44.794;-0.676;2022-10-16T07:50:23;100754.06;;;30.67;34.77
21555;BME280;10938;44.794;-0.676;2022-10-16T07:52:49;100751.81;;;30.08;36.29
21555;BME280;10938;44.794;-0.676;2022-10-16T07:55:14;100756.41;;;30.06;35.79
21555;BME280;10938;44.794;-0.676;2022-10-16T07:57:39;100758.66;;;30.00;37.00
21555;BME280;10938;44.794;-0.676;2022-10-16T08:00:05;100759.69;;;29.85;36.64
21555;BME280;10938;44.794;-0.676;2022-10-16T08:02:31;100761.66;;;28.70;38.43
21555;BME280;10938;44.794;-0.676;2022-10-16T08:04:57;100757.38;;;28.51;38.92
21555;BME280;10938;44.794;-0.676;2022-10-16T08:07:22;100762.38;;;29.71;37.26
21555;BME280;10938;44.794;-0.676;2022-10-16T08:09:51;100766.03;;;30.88;35.38
21555;BME280;10938;44.794;-0.676;2022-10-16T08:12:17;100766.38;;;29.78;37.42
21555;BME280;10938;44.794;-0.676;2022-10-16T08:14:43;100762.66;;;30.07;37.05
21555;BME280;10938;44.794;-0.676;2022-10-16T08:17:08;100772.81;;;29.34;37.87
21555;BME280;10938;44.794;-0.676;2022-10-16T08:19:33;100773.56;;;30.70;35.61
21555;BME280;10938;44.794;-0.676;2022-10-16T08:22:00;100771.53;;;28.39;38.85
21555;BME280;10938;44.794;-0.676;2022-10-16T08:24:26;100773.34;;;27.93;40.78
21555;BME280;10938;44.794;-0.676;2022-10-16T08:26:53;100767.81;;;27.49;41.58
21555;BME280;10938;44.794;-0.676;2022-10-16T08:29:19;100768.09;;;26.62;43.14
21555;BME280;10938;44.794;-0.676;2022-10-16T08:31:44;100776.81;;;27.80;41.27
21555;BME280;10938;44.794;-0.676;2022-10-16T08:34:10;100762.09;;;28.32;40.09
21555;BME280;10938;44.794;-0.676;2022-10-16T08:36:35;100767.47;;;28.62;39.95
21555;BME280;10938;44.794;-0.676;2022-10-16T08:39:01;100765.94;;;28.58;39.90
21555;BME280;10938;44.794;-0.676;2022-10-16T08:47:11;100771.53;;;29.95;36.92
21555;BME280;10938;44.794;-0.676;2022-10-16T08:49:41;100766.63;;;31.54;34.50
21555;BME280;10938;44.794;-0.676;2022-10-16T08:52:12;100775.22;;;30.98;35.15
21555;BME280;10938;44.794;-0.676;2022-10-16T08:54:44;100774.16;;;28.55;39.81
21555;BME280;10938;44.794;-0.676;2022-10-16T08:57:22;100776.34;;;28.62;40.02
21555;BME280;10938;44.794;-0.676;2022-10-16T08:59:49;100774.91;;;29.01;38.86
21555;BME280;10938;44.794;-0.676;2022-10-16T09:02:34;100770.41;;;28.87;39.14
21555;BME280;10938;44.794;-0.676;2022-10-16T09:05:16;100774.09;;;30.62;36.17
21555;BME280;10938;44.794;-0.676;2022-10-16T09:07:54;100782.16;;;28.41;40.02
21555;BME280;10938;44.794;-0.676;2022-10-16T09:13:12;100790.22;;;28.71;39.73
21555;BME280;10938;44.794;-0.676;2022-10-16T09:18:29;100781.88;;;28.16;40.60
21555;BME280;10938;44.794;-0.676;2022-10-16T09:21:05;100774.34;;;28.52;40.00
21555;BME280;10938;44.794;-0.676;2022-10-16T09:23:35;100778.16;;;29.20;39.26
21555;BME280;10938;44.794;-0.676;2022-10-16T09:26:02;100782.72;;;30.55;37.01
21555;BME280;10938;44.794;-0.676;2022-10-16T09:28:29;100779.66;;;30.47;36.91
21555;BME280;10938;44.794;-0.676;2022-10-16T09:30:54;100772.38;;;30.61;36.42
21555;BME280;10938;44.794;-0.676;2022-10-16T09:33:23;100783.38;;;30.58;36.72
21555;BME280;10938;44.794;-0.676;2022-10-16T09:35:52;100779.31;;;30.39;36.93
21555;BME280;10938;44.794;-0.676;2022-10-16T09:38:32;100782.72;;;29.89;37.86
21555;BME280;10938;44.794;-0.676;2022-10-16T09:41:00;100781.16;;;29.99;37.30
21555;BME280;10938;44.794;-0.676;2022-10-16T09:43:38;100775.28;;;29.09;38.75
21555;BME280;10938;44.794;-0.676;2022-10-16T09:48:55;100779.84;;;28.64;39.76
21555;BME280;10938;44.794;-0.676;2022-10-16T09:51:25;100780.97;;;29.04;39.44
21555;BME280;10938;44.794;-0.676;2022-10-16T09:54:15;100781.31;;;28.40;40.58
21555;BME280;10938;44.794;-0.676;2022-10-16T09:56:41;100783.16;;;29.26;38.24
21555;BME280;10938;44.794;-0.676;2022-10-16T09:59:12;100779.03;;;28.62;40.02
21555;BME280;10938;44.794;-0.676;2022-10-16T10:01:48;100775.97;;;29.27;38.99
21555;BME280;10938;44.794;-0.676;2022-10-16T10:04:14;100781.06;;;29.31;39.15
21555;BME280;10938;44.794;-0.676;2022-10-16T10:06:51;100773.28;;;29.55;38.44
21555;BME280;10938;44.794;-0.676;2022-10-16T10:14:21;100770.97;;;29.90;38.85
21555;BME280;10938;44.794;-0.676;2022-10-16T10:16:48;100777.69;;;29.83;38.66
21555;BME280;10938;44.794;-0.676;2022-10-16T10:19:22;100775.28;;;30.58;36.76
21555;BME280;10938;44.794;-0.676;2022-10-16T10:21:49;100760.63;;;29.70;38.82
21555;BME280;10938;44.794;-0.676;2022-10-16T10:24:17;100767.50;;;31.42;35.79
21555;BME280;10938;44.794;-0.676;2022-10-16T10:26:54;100757.19;;;30.48;36.51
21555;BME280;10938;44.794;-0.676;2022-10-16T10:29:53;100760.75;;;31.24;35.86
21555;BME280;10938;44.794;-0.676;2022-10-16T10:32:32;100760.09;;;30.83;36.06
21555;BME280;10938;44.794;-0.676;2022-10-16T10:46:03;100744.47;;;32.22;34.58
21555;BME280;10938;44.794;-0.676;2022-10-16T10:54:14;100741.66;;;33.36;32.61
21555;BME280;10938;44.794;-0.676;2022-10-16T10:57:02;100735.25;;;32.01;34.17
21555;BME280;10938;44.794;-0.676;2022-10-16T11:00:03;100729.44;;;34.18;31.13
21555;BME280;10938;44.794;-0.676;2022-10-16T11:07:54;100732.47;;;33.28;32.67
21555;BME280;10938;44.794;-0.676;2022-10-16T11:10:26;100734.81;;;34.59;30.59
21555;BME280;10938;44.794;-0.676;2022-10-16T11:13:10;100732.06;;;32.77;33.37
21555;BME280;10938;44.794;-0.676;2022-10-16T11:15:43;100737.38;;;33.45;32.26
21555;BME280;10938;44.794;-0.676;2022-10-16T11:18:44;100728.19;;;34.22;30.98
21555;BME280;10938;44.794;-0.676;2022-10-16T11:21:28;100740.03;;;35.13;29.52
21555;BME280;10938;44.794;-0.676;2022-10-16T11:24:09;100729.66;;;32.96;33.38
21555;BME280;10938;44.794;-0.676;2022-10-16T11:26:53;100747.59;;;33.19;32.18
21555;BME280;10938;44.794;-0.676;2022-10-16T11:29:29;100744.38;;;33.36;32.62
21555;BME280;10938;44.794;-0.676;2022-10-16T11:32:23;100742.19;;;33.95;31.74
21555;BME280;10938;44.794;-0.676;2022-10-16T11:34:59;100740.75;;;34.64;30.75
21555;BME280;10938;44.794;-0.676;2022-10-16T11:37:32;100744.50;;;34.73;30.25
21555;BME280;10938;44.794;-0.676;2022-10-16T11:40:15;100739.13;;;35.53;29.66
21555;BME280;10938;44.794;-0.676;2022-10-16T11:42:48;100747.22;;;35.03;29.78
21555;BME280;10938;44.794;-0.676;2022-10-16T11:45:37;100731.06;;;32.67;32.93
21555;BME280;10938;44.794;-0.676;2022-10-16T11:51:26;100732.47;;;33.05;32.23
21555;BME280;10938;44.794;-0.676;2022-10-16T11:54:22;100723.97;;;33.43;31.98
21555;BME280;10938;44.794;-0.676;2022-10-16T11:56:57;100728.91;;;33.05;31.95
21555;BME280;10938;44.794;-0.676;2022-10-16T12:00:07;100726.56;;;33.88;30.79
21555;BME280;10938;44.794;-0.676;2022-10-16T12:05:12;100727.25;;;34.53;28.93
21555;BME280;10938;44.794;-0.676;2022-10-16T12:07:56;100728.63;;;34.27;29.45
21555;BME280;10938;44.794;-0.676;2022-10-16T12:10:28;100714.78;;;34.21;29.68
21555;BME280;10938;44.794;-0.676;2022-10-16T12:13:00;100722.16;;;34.19;29.23
21555;BME280;10938;44.794;-0.676;2022-10-16T12:15:30;100716.81;;;34.70;28.82
21555;BME280;10938;44.794;-0.676;2022-10-16T12:18:01;100713.78;;;34.42;27.87
21555;BME280;10938;44.794;-0.676;2022-10-16T12:20:32;100716.00;;;35.39;26.87
21555;BME280;10938;44.794;-0.676;2022-10-16T12:23:04;100706.75;;;34.60;27.38
21555;BME280;10938;44.794;-0.676;2022-10-16T12:25:43;100710.50;;;35.20;26.96
21555;BME280;10938;44.794;-0.676;2022-10-16T12:28:18;100703.81;;;34.63;27.68
21555;BME280;10938;44.794;-0.676;2022-10-16T12:31:03;100704.56;;;35.26;26.93
21555;BME280;10938;44.794;-0.676;2022-10-16T12:33:59;100707.59;;;35.42;25.54
21555;BME280;10938;44.794;-0.676;2022-10-16T12:36:46;100700.50;;;35.70;25.81
21555;BME280;10938;44.794;-0.676;2022-10-16T12:39:24;100702.97;;;35.83;25.91
21555;BME280;10938;44.794;-0.676;2022-10-16T12:42:22;100704.41;;;36.16;25.50
21555;BME280;10938;44.794;-0.676;2022-10-16T12:47:55;100703.25;;;35.99;24.84
21555;BME280;10938;44.794;-0.676;2022-10-16T12:52:59;100699.22;;;35.84;24.79
21555;BME280;10938;44.794;-0.676;2022-10-16T12:55:35;100696.06;;;36.27;24.48
21555;BME280;10938;44.794;-0.676;2022-10-16T13:01:24;100689.22;;;34.76;25.77
21555;BME280;10938;44.794;-0.676;2022-10-16T13:16:03;100687.25;;;36.15;23.61
21555;BME280;10938;44.794;-0.676;2022-10-16T14:23:49;100648.34;;;35.47;22.22
21555;BME280;10938;44.794;-0.676;2022-10-16T14:26:23;100647.66;;;36.22;21.75
21555;BME280;10938;44.794;-0.676;2022-10-16T14:29:15;100644.97;;;36.69;21.41
21555;BME280;10938;44.794;-0.676;2022-10-16T14:32:03;100640.03;;;36.35;22.02
21555;BME280;10938;44.794;-0.676;2022-10-16T14:36:59;100643.56;;;36.92;21.03
21555;BME280;10938;44.794;-0.676;2022-10-16T14:39:27;100646.63;;;37.16;21.10
21555;BME280;10938;44.794;-0.676;2022-10-16T14:41:55;100643.25;;;36.68;21.37
21555;BME280;10938;44.794;-0.676;2022-10-16T14:44:28;100643.28;;;36.48;21.45
21555;BME280;10938;44.794;-0.676;2022-10-16T14:46:55;100644.09;;;36.68;21.56
21555;BME280;10938;44.794;-0.676;2022-10-16T14:49:22;100638.91;;;36.75;21.30
21555;BME280;10938;44.794;-0.676;2022-10-16T14:51:48;100632.28;;;36.40;21.03
21555;BME280;10938;44.794;-0.676;2022-10-16T14:54:18;100633.47;;;37.11;20.79
21555;BME280;10938;44.794;-0.676;2022-10-16T14:56:49;100623.88;;;37.70;20.14
21555;BME280;10938;44.794;-0.676;2022-10-16T14:59:19;100631.25;;;37.42;20.60
21555;BME280;10938;44.794;-0.676;2022-10-16T15:01:45;100630.88;;;37.10;21.25
21555;BME280;10938;44.794;-0.676;2022-10-16T15:04:11;100632.53;;;37.03;21.49
21555;BME280;10938;44.794;-0.676;2022-10-16T15:06:41;100631.81;;;36.91;21.37
21555;BME280;10938;44.794;-0.676;2022-10-16T15:09:08;100637.63;;;36.79;21.22
21555;BME280;10938;44.794;-0.676;2022-10-16T15:11:33;100639.44;;;37.15;21.17
21555;BME280;10938;44.794;-0.676;2022-10-16T15:13:59;100633.75;;;37.53;21.01
21555;BME280;10938;44.794;-0.676;2022-10-16T15:16:25;100635.25;;;37.48;21.29
21555;BME280;10938;44.794;-0.676;2022-10-16T15:18:50;100627.38;;;37.98;20.76
21555;BME280;10938;44.794;-0.676;2022-10-16T15:21:32;100635.56;;;37.98;20.20